Huvudsida
METAR-TAF:

METAR-TAF

Flygplatser :

Fasa, Iran

latitud: 28-58N, longitud: 053-41E, höjd: 1383 m

Aktuellt väderrapport

Denna rapport gjordes för 1 timme och 9 minuter sedan, klockan 00:00 UTC
Vind 4 kt från nord/nordväst
Temperatur 13°C
Fuktighet 94%
Tryck 1010 hPa
Sikt: 8000 m
Få moln på en höjd av 4000 ft

METAR: OISF 230000Z 34004KT 8000 FEW040 13/12 Q1010 A2983

Tid: 05:39 (01:09 UTC)


TAF: saknas

Aktuella väderrapporter och prognoser från 4000 flygplatser (METAR- och TAF-rapporter).

De tillgängliga stationerna syns som gula och röda prickar på kartan.

För musen över prickarna för att se namnen på stationerna.

Klicka sedan för att få väderrapporter och prognoser.

För att ändra kartan: Klicka på de gröna knapparna med ett svart kors på för att zooma in; den gröna knappen med ett streck på för att zooma ut; eller på de gröna pilarna för angränsande kartor.


METAR-TAF: